KPBF

Pine Bluff Regional Grider Field Airport

Pine Bluff, Arkansas, USA
METAR KPBF 161753Z AUTO 17006KT 10SM OVC046 09/03 A3029 RMK AO2 SLP256 T00940033 10094 20039 58007
Observed Flight Rules
Jan-16 @ 17:53 UTC (45 minutes ago) Visual Flight Rules
Wind Visibility Clouds
170° at 6 knots 10 miles
  • Overcast at 4,600' AGL
Temperatures Readings
Current 9°C / 48°F
Dewpoint 3°C / 37°F
Humidity 66%
Altimeter 30.29" Hg
Pressure 1025.6 hPa
Elevation 62
METAR KPBF 161753Z AUTO 17006KT 10SM OVC046 09/03 A3029 RMK AO2 SLP256 T00940033 10094 20039 58007
Observed Flight Rules
Jan-16 @ 17:53 UTC
(45 minutes ago)
VFR
Wind Visibility
170° at 6 knots 10 miles
Clouds
  • Overcast at 4,600' AGL
Temperature Dewpoint
9°C / 48°F 3°C / 37°F
Humidity Altimeter Pressure
66% 30.29" Hg 1025.6 hPa